createdAt,value
2024-03-28T00:00:17.383Z,99255.3
2024-03-28T00:01:16.849Z,99253.08
2024-03-28T00:02:17.172Z,99256.55
2024-03-28T00:03:17.607Z,99253.17
2024-03-28T00:04:17.984Z,99253.09
2024-03-28T00:05:18.915Z,99248.55
2024-03-28T00:06:19.351Z,99252.11
2024-03-28T00:07:19.749Z,99251.14
2024-03-28T00:08:20.401Z,99251.62
2024-03-28T00:09:21.310Z,99255.44
2024-03-28T00:10:20.832Z,99250.4
2024-03-28T00:11:21.307Z,99249.05
2024-03-28T00:12:21.528Z,99247.66
2024-03-28T00:13:23.382Z,99245.37
2024-03-28T00:14:22.652Z,99244.42
2024-03-28T00:15:22.768Z,99245.77
2024-03-28T00:16:23.193Z,99243.86
2024-03-28T00:17:23.500Z,99247
2024-03-28T00:18:23.916Z,99245.97
2024-03-28T00:19:30.517Z,99247.69
2024-03-28T00:20:28.436Z,99250.74
2024-03-28T00:21:29.571Z,99249.23
2024-03-28T00:22:29.897Z,99248.31
2024-03-28T00:23:30.446Z,99245.7
2024-03-28T00:24:30.819Z,99245.38
2024-03-28T00:25:31.765Z,99241.64
2024-03-28T00:26:31.580Z,99238.67
2024-03-28T00:27:31.756Z,99238.71
2024-03-28T00:28:32.283Z,99235.99
2024-03-28T00:29:33.098Z,99230.7
2024-03-28T00:30:33.011Z,99232.69
2024-03-28T00:31:33.642Z,99231.12
2024-03-28T00:32:33.627Z,99236.36
2024-03-28T00:33:34.175Z,99231.2
2024-03-28T00:34:34.475Z,99232.22
2024-03-28T00:35:34.697Z,99231.52
2024-03-28T00:36:35.224Z,99230.76
2024-03-28T00:37:35.622Z,99229.44
2024-03-28T00:38:36.029Z,99228.14
2024-03-28T00:39:36.371Z,99231.45
2024-03-28T00:40:37.704Z,99230.45
2024-03-28T00:41:37.089Z,99232.42
2024-03-28T00:42:37.501Z,99233.62
2024-03-28T00:43:37.907Z,99233.74
2024-03-28T00:44:38.245Z,99227.3
2024-03-28T00:45:38.539Z,99224.53
2024-03-28T00:46:39.068Z,99219.45
2024-03-28T00:47:39.467Z,99219.98
2024-03-28T00:48:39.708Z,99222.81
2024-03-28T00:49:40.225Z,99222.93
2024-03-28T00:50:40.518Z,99220.21
2024-03-28T00:51:40.930Z,99223.44
2024-03-28T00:52:41.352Z,99217.93
2024-03-28T00:53:41.763Z,99217.03
2024-03-28T00:54:41.974Z,99217.34
2024-03-28T00:55:42.396Z,99216.56
2024-03-28T00:56:42.718Z,99211.12
2024-03-28T00:57:43.231Z,99214.05
2024-03-28T00:58:43.648Z,99211.34
2024-03-28T00:59:43.851Z,99209.09
2024-03-28T01:00:45.499Z,99212.18
2024-03-28T01:01:44.785Z,99209.18
2024-03-28T01:02:45.248Z,99212.62
2024-03-28T01:03:45.536Z,99208.09
2024-03-28T01:04:45.838Z,99204.11
2024-03-28T01:05:46.366Z,99206.89
2024-03-28T01:06:46.667Z,99205.45
2024-03-28T01:07:46.988Z,99204.76
2024-03-28T01:08:48.023Z,99201.41
2024-03-28T01:09:48.429Z,99201.31
2024-03-28T01:10:48.150Z,99198.91
2024-03-28T01:11:48.538Z,99198.66
2024-03-28T01:12:48.972Z,99201.73
2024-03-28T01:13:49.704Z,99200.86
2024-03-28T01:14:49.706Z,99204.45
2024-03-28T01:15:50.125Z,99200.08
2024-03-28T01:16:50.328Z,99197.67
2024-03-28T01:17:50.724Z,99201.2
2024-03-28T01:18:51.256Z,99200.48
2024-03-28T01:19:52.686Z,99199.02
2024-03-28T01:20:51.983Z,99199.89
2024-03-28T01:21:52.236Z,99200.08
2024-03-28T01:22:52.531Z,99198.79
2024-03-28T01:23:53.063Z,99201.13
2024-03-28T01:24:53.451Z,99198.52
2024-03-28T01:25:53.759Z,99199.16
2024-03-28T01:26:54.059Z,99198.75
2024-03-28T01:27:54.592Z,99198.55
2024-03-28T01:28:55.008Z,99199.51
2024-03-28T01:29:55.727Z,99198.48
2024-03-28T01:30:58.830Z,99201.45
2024-03-28T01:31:56.348Z,99209.23
2024-03-28T01:32:56.681Z,99208.5
2024-03-28T01:33:57.194Z,99202.36
2024-03-28T01:34:57.811Z,99201.73
2024-03-28T01:35:57.920Z,99204.95
2024-03-28T01:36:58.173Z,99203.89
2024-03-28T01:37:58.535Z,99199.64
2024-03-28T01:38:59.170Z,99203.62
2024-03-28T01:40:01.748Z,99199.69
2024-03-28T01:40:59.683Z,99203.44
2024-03-28T01:42:00.212Z,99205.19
2024-03-28T01:43:12.314Z,99204.23
2024-03-28T01:44:04.768Z,99203.3
2024-03-28T01:45:06.157Z,99203.75
2024-03-28T01:46:07.651Z,99204.93
2024-03-28T01:47:25.463Z,99205.59
2024-03-28T01:48:09.794Z,99203.09
2024-03-28T01:49:10.614Z,99205.17
2024-03-28T01:50:10.764Z,99201.37
2024-03-28T01:51:11.143Z,99203.93
2024-03-28T01:52:12.386Z,99203.67
2024-03-28T01:53:11.673Z,99202.42
2024-03-28T01:54:13.714Z,99206.08
2024-03-28T01:55:11.980Z,99206.95
2024-03-28T01:56:12.728Z,99202.5
2024-03-28T01:57:15.108Z,99204.38
2024-03-28T01:58:13.960Z,99205.62
2024-03-28T01:59:13.851Z,99204.42
2024-03-28T02:00:16.726Z,99203.97
2024-03-28T02:01:15.300Z,99200.24
2024-03-28T02:02:15.494Z,99201.5
2024-03-28T02:03:16.230Z,99201.7
2024-03-28T02:04:15.744Z,99197.38
2024-03-28T02:05:16.435Z,99203.36
2024-03-28T02:06:16.265Z,99204.18
2024-03-28T02:07:16.600Z,99197.59
2024-03-28T02:08:16.906Z,99200.77
2024-03-28T02:09:17.590Z,99200.56
2024-03-28T02:10:18.077Z,99196.53
2024-03-28T02:11:19.345Z,99196.47
2024-03-28T02:12:18.422Z,99197.77
2024-03-28T02:13:19.242Z,99198.38
2024-03-28T02:14:19.153Z,99197.14
2024-03-28T02:15:19.483Z,99200.38
2024-03-28T02:16:19.815Z,99199.34
2024-03-28T02:17:20.101Z,99198.33
2024-03-28T02:18:24.124Z,99193.72
2024-03-28T02:19:21.988Z,99193.66
2024-03-28T02:20:22.077Z,99194.73
2024-03-28T02:21:22.298Z,99189.69
2024-03-28T02:22:22.546Z,99191.88
2024-03-28T02:23:23.017Z,99186.55
2024-03-28T02:24:23.639Z,99187.84
2024-03-28T02:25:25.175Z,99192.09
2024-03-28T02:26:25.011Z,99185.74
2024-03-28T02:27:24.488Z,99189.33
2024-03-28T02:28:24.901Z,99187.62
2024-03-28T02:29:26.270Z,99184.28
2024-03-28T02:30:26.342Z,99189.95
2024-03-28T02:31:26.043Z,99186.29
2024-03-28T02:32:26.250Z,99186.59
2024-03-28T02:33:26.673Z,99185.69
2024-03-28T02:34:27.088Z,99184.65
2024-03-28T02:35:27.591Z,99188.34
2024-03-28T02:36:27.925Z,99186.23
2024-03-28T02:37:28.177Z,99186.55
2024-03-28T02:38:28.443Z,99184.86
2024-03-28T02:39:28.945Z,99184.51
2024-03-28T02:40:29.387Z,99187.27
2024-03-28T02:41:29.579Z,99180.8
2024-03-28T02:42:29.843Z,99181.95
2024-03-28T02:43:31.541Z,99182.12
2024-03-28T02:44:31.060Z,99179.07
2024-03-28T02:45:31.067Z,99177.61
2024-03-28T02:46:31.562Z,99178.1
2024-03-28T02:47:31.777Z,99174.2
2024-03-28T02:48:32.190Z,99179.28
2024-03-28T02:49:32.705Z,99173.33
2024-03-28T02:50:32.913Z,99172.91
2024-03-28T02:51:33.241Z,99172.31
2024-03-28T02:52:33.662Z,99174.84
2024-03-28T02:53:34.065Z,99173.16
2024-03-28T02:54:34.898Z,99175.06
2024-03-28T02:55:34.808Z,99173.88
2024-03-28T02:56:35.139Z,99174.94
2024-03-28T02:57:35.431Z,99171.92
2024-03-28T02:58:35.942Z,99169.3
2024-03-28T02:59:36.264Z,99170.73
2024-03-28T03:00:36.679Z,99170.09
2024-03-28T03:01:37.093Z,99174.74
2024-03-28T03:02:37.302Z,99169.88
2024-03-28T03:03:37.763Z,99174.81
2024-03-28T03:04:38.145Z,99172.64
2024-03-28T03:05:39.271Z,99172.48
2024-03-28T03:06:39.978Z,99166.78
2024-03-28T03:07:39.282Z,99166.2
2024-03-28T03:08:39.501Z,99163.88
2024-03-28T03:09:40.007Z,99162.73
2024-03-28T03:10:40.261Z,99167.4
2024-03-28T03:11:40.669Z,99162.56
2024-03-28T03:12:41.058Z,99164.78
2024-03-28T03:13:41.473Z,99166.84
2024-03-28T03:14:41.882Z,99162.38
2024-03-28T03:15:42.115Z,99158.15
2024-03-28T03:16:42.422Z,99163.41
2024-03-28T03:17:42.724Z,99161.88
2024-03-28T03:18:43.262Z,99160.7
2024-03-28T03:19:44.172Z,99161.47
2024-03-28T03:20:43.983Z,99164.7
2024-03-28T03:21:44.497Z,99164.53
2024-03-28T03:22:45.026Z,99160.55
2024-03-28T03:23:48.172Z,99163.34
2024-03-28T03:24:47.173Z,99161.28
2024-03-28T03:25:47.287Z,99162.47
2024-03-28T03:26:47.714Z,99162.17
2024-03-28T03:27:47.927Z,99158.91
2024-03-28T03:28:48.433Z,99157.19
2024-03-28T03:29:48.752Z,99155.28
2024-03-28T03:30:49.301Z,99154.28
2024-03-28T03:31:49.370Z,99152.08
2024-03-28T03:32:49.691Z,99149.95
2024-03-28T03:33:50.101Z,99150.72
2024-03-28T03:34:50.518Z,99151.48
2024-03-28T03:35:50.829Z,99149.64
2024-03-28T03:36:51.250Z,99148.37
2024-03-28T03:37:51.554Z,99149.53
2024-03-28T03:38:51.876Z,99151.25
2024-03-28T03:40:56.101Z,99149.38
2024-03-28T03:41:57.117Z,99147.41
2024-03-28T03:42:56.820Z,99149.36
2024-03-28T03:43:56.957Z,99144.39
2024-03-28T03:44:57.446Z,99139.86
2024-03-28T03:45:57.797Z,99138.78
2024-03-28T03:46:58.181Z,99140.32
2024-03-28T03:47:58.593Z,99137.97
2024-03-28T03:48:58.927Z,99145.69
2024-03-28T03:49:59.430Z,99143.12
2024-03-28T03:50:59.627Z,99140.36
2024-03-28T03:51:59.960Z,99137.93
2024-03-28T03:53:00.423Z,99141.39
2024-03-28T03:54:00.797Z,99141.59
2024-03-28T03:55:01.307Z,99131.98
2024-03-28T03:56:01.523Z,99134.81
2024-03-28T03:57:01.833Z,99131.61
2024-03-28T03:58:02.140Z,99136.47
2024-03-28T03:59:03.177Z,99133.66
2024-03-28T04:00:02.944Z,99136.79
2024-03-28T04:01:03.610Z,99139.05
2024-03-28T04:02:04.221Z,99132.03
2024-03-28T04:03:04.636Z,99131.89
2024-03-28T04:04:05.371Z,99134.24
2024-03-28T04:05:05.571Z,99138.36
2024-03-28T04:06:05.688Z,99135.65
2024-03-28T04:07:05.474Z,99138.72
2024-03-28T04:08:06.615Z,99135.61
2024-03-28T04:09:06.104Z,99133.86
2024-03-28T04:10:07.247Z,99131.92
2024-03-28T04:11:07.251Z,99129.98
2024-03-28T04:12:07.766Z,99127.87
2024-03-28T04:13:07.606Z,99129.88
2024-03-28T04:14:07.895Z,99128.06
2024-03-28T04:15:09.312Z,99127.95
2024-03-28T04:16:08.709Z,99123.77
2024-03-28T04:17:09.040Z,99120.62
2024-03-28T04:18:09.532Z,99120.23
2024-03-28T04:19:10.170Z,99118.75
2024-03-28T04:20:11.406Z,99122.36
2024-03-28T04:21:10.998Z,99119.73
2024-03-28T04:22:10.905Z,99120.94
2024-03-28T04:23:11.330Z,99118.39
2024-03-28T04:24:11.650Z,99116.83
2024-03-28T04:25:12.048Z,99115.03
2024-03-28T04:26:12.384Z,99116.23
2024-03-28T04:27:12.580Z,99119.34
2024-03-28T04:28:13.194Z,99118.58
2024-03-28T04:29:13.295Z,99121.14
2024-03-28T04:30:15.973Z,99120.24
2024-03-28T04:31:14.666Z,99118.86
2024-03-28T04:32:14.448Z,99120.86
2024-03-28T04:33:15.205Z,99118.39
2024-03-28T04:34:15.394Z,99114.47
2024-03-28T04:35:15.620Z,99118.02
2024-03-28T04:36:16.826Z,99117.84
2024-03-28T04:37:16.243Z,99119.94
2024-03-28T04:38:16.750Z,99116.09
2024-03-28T04:39:16.990Z,99115.78
2024-03-28T04:40:17.719Z,99113.95
2024-03-28T04:41:17.805Z,99110.73
2024-03-28T04:42:18.110Z,99111.84
2024-03-28T04:43:18.626Z,99109.83
2024-03-28T04:44:18.877Z,99113.72
2024-03-28T04:45:19.253Z,99112.23
2024-03-28T04:46:19.800Z,99110.49
2024-03-28T04:47:19.890Z,99111.02
2024-03-28T04:48:20.413Z,99105.77
2024-03-28T04:49:20.888Z,99109.74
2024-03-28T04:50:21.446Z,99107.59
2024-03-28T04:51:21.362Z,99103.14
2024-03-28T04:52:22.086Z,99099.33
2024-03-28T04:53:22.072Z,99106.47
2024-03-28T04:54:22.694Z,99109.73
2024-03-28T04:55:25.262Z,99106.51
2024-03-28T04:56:24.233Z,99107.61
2024-03-28T04:57:24.745Z,99106.05
2024-03-28T04:58:25.144Z,99109.62
2024-03-28T04:59:25.273Z,99104.62
2024-03-28T05:00:25.606Z,99109.42
2024-03-28T05:01:26.239Z,99105.81
2024-03-28T05:02:26.420Z,99106.03
2024-03-28T05:03:26.840Z,99104.14
2024-03-28T05:04:27.068Z,99102.05
2024-03-28T05:05:27.562Z,99101
2024-03-28T05:06:28.108Z,99101.48
2024-03-28T05:07:28.310Z,99100.52
2024-03-28T05:08:28.623Z,99101.89
2024-03-28T05:09:28.878Z,99099.7
2024-03-28T05:10:29.465Z,99101.95
2024-03-28T05:11:29.772Z,99104.02
2024-03-28T05:12:30.067Z,99100.94
2024-03-28T05:13:30.384Z,99108.84
2024-03-28T05:14:30.710Z,99103.42
2024-03-28T05:15:31.039Z,99108.38
2024-03-28T05:16:31.546Z,99104.2
2024-03-28T05:17:31.746Z,99101.34
2024-03-28T05:18:32.306Z,99103.35
2024-03-28T05:19:32.688Z,99103.64
2024-03-28T05:20:32.906Z,99106.45
2024-03-28T05:21:34.028Z,99102.48
2024-03-28T05:22:33.626Z,99104.16
2024-03-28T05:23:34.066Z,99105.19
2024-03-28T05:24:34.405Z,99103.73
2024-03-28T05:25:34.791Z,99100.52
2024-03-28T05:26:36.203Z,99103.87
2024-03-28T05:27:35.431Z,99098.28
2024-03-28T05:28:35.808Z,99099.25
2024-03-28T05:29:36.328Z,99099.4
2024-03-28T05:30:36.652Z,99092.72
2024-03-28T05:31:37.554Z,99090.7
2024-03-28T05:32:37.375Z,99089.45
2024-03-28T05:33:37.821Z,99084.73
2024-03-28T05:34:38.132Z,99085.48
2024-03-28T05:35:38.335Z,99082.2
2024-03-28T05:36:38.854Z,99076.75
2024-03-28T05:37:38.979Z,99078.48
2024-03-28T05:38:39.887Z,99077.95
2024-03-28T05:39:39.895Z,99071.34
2024-03-28T05:40:40.332Z,99074.34
2024-03-28T05:41:40.634Z,99073.07
2024-03-28T05:42:42.490Z,99076.03
2024-03-28T05:43:41.348Z,99076.73
2024-03-28T05:44:41.877Z,99073.02
2024-03-28T05:45:43.932Z,99073.13
2024-03-28T05:46:42.565Z,99075.73
2024-03-28T05:47:42.805Z,99078.98
2024-03-28T05:48:43.237Z,99076.73
2024-03-28T05:49:43.640Z,99075.3
2024-03-28T05:50:44.089Z,99075.48
2024-03-28T05:51:44.268Z,99075.62
2024-03-28T05:52:44.704Z,99071.34
2024-03-28T05:53:45.089Z,99070.11
2024-03-28T05:54:45.302Z,99068.68
2024-03-28T05:55:46.132Z,99069.74
2024-03-28T05:56:46.244Z,99067.69
2024-03-28T05:57:46.567Z,99068.8
2024-03-28T05:58:47.590Z,99067.38
2024-03-28T05:59:47.184Z,99068.59
2024-03-28T06:00:47.617Z,99062.59
2024-03-28T06:01:48.031Z,99064.29
2024-03-28T06:02:48.141Z,99060.53
2024-03-28T06:03:48.672Z,99062
2024-03-28T06:04:49.082Z,99061.71
2024-03-28T06:05:49.370Z,99056.75
2024-03-28T06:06:50.128Z,99060.81
2024-03-28T06:07:50.150Z,99053.22
2024-03-28T06:08:50.427Z,99053.73
2024-03-28T06:09:50.939Z,99057.05
2024-03-28T06:10:51.283Z,99048.69
2024-03-28T06:11:51.786Z,99047.39
2024-03-28T06:12:52.187Z,99049.06
2024-03-28T06:14:54.598Z,99043.77
2024-03-28T06:15:55.142Z,99048.52
2024-03-28T06:16:55.443Z,99045.67
2024-03-28T06:17:55.915Z,99044.05
2024-03-28T06:18:56.120Z,99041.59
2024-03-28T06:19:56.661Z,99037.33
2024-03-28T06:21:04.536Z,99041.05
2024-03-28T06:21:57.361Z,99041.82
2024-03-28T06:22:57.697Z,99042.21
2024-03-28T06:23:57.994Z,99041.11
2024-03-28T06:24:58.330Z,99040.52
2024-03-28T06:26:02.311Z,99041.31
2024-03-28T06:26:59.588Z,99041.28
2024-03-28T06:28:00.063Z,99040.34
2024-03-28T06:29:00.519Z,99041.69
2024-03-28T06:30:00.892Z,99041.94
2024-03-28T06:31:01.253Z,99044.45
2024-03-28T06:32:01.732Z,99042.05
2024-03-28T06:33:02.046Z,99044.21
2024-03-28T06:34:02.585Z,99045.76
2024-03-28T06:35:02.784Z,99038.15
2024-03-28T06:36:03.536Z,99044.14
2024-03-28T06:37:03.522Z,99044.49
2024-03-28T06:38:04.458Z,99046.09
2024-03-28T06:39:04.253Z,99044.94
2024-03-28T06:40:05.592Z,99041.45
2024-03-28T06:41:05.398Z,99043.66
2024-03-28T06:42:06.123Z,99043.99
2024-03-28T06:43:05.824Z,99042.09
2024-03-28T06:44:06.112Z,99044.06
2024-03-28T06:45:06.941Z,99042.17
2024-03-28T06:46:06.946Z,99041.87
2024-03-28T06:47:07.272Z,99043.13
2024-03-28T06:48:08.209Z,99040.84
2024-03-28T06:49:07.917Z,99042.66
2024-03-28T06:50:09.222Z,99041.98
2024-03-28T06:51:08.637Z,99038.77
2024-03-28T06:52:09.578Z,99040.59
2024-03-28T06:53:09.767Z,99040.45
2024-03-28T06:54:09.764Z,99039.36
2024-03-28T06:55:10.399Z,99038.89
2024-03-28T06:56:10.615Z,99040.11
2024-03-28T06:57:11.951Z,99036.73
2024-03-28T06:58:11.432Z,99035.58
2024-03-28T06:59:11.743Z,99033.69
2024-03-28T07:00:13.314Z,99033.66
2024-03-28T07:01:12.498Z,99035.78
2024-03-28T07:02:13.111Z,99035.89
2024-03-28T07:03:13.615Z,99038.25
2024-03-28T07:04:13.716Z,99039.36
2024-03-28T07:05:14.157Z,99036.33
2024-03-28T07:06:19.324Z,99034.77
2024-03-28T07:07:17.192Z,99037.04
2024-03-28T07:08:17.447Z,99032.06
2024-03-28T07:09:18.066Z,99032.54
2024-03-28T07:10:18.491Z,99032.29
2024-03-28T07:11:18.698Z,99028.14
2024-03-28T07:12:19.108Z,99026.83
2024-03-28T07:13:19.533Z,99028.81
2024-03-28T07:14:20.139Z,99021.66
2024-03-28T07:15:20.157Z,99027.44
2024-03-28T07:16:20.791Z,99021.42
2024-03-28T07:17:21.093Z,99022.02
2024-03-28T07:18:21.308Z,99020.11
2024-03-28T07:19:21.832Z,99020.23
2024-03-28T07:20:22.136Z,99016.36
2024-03-28T07:21:22.888Z,99015.9
2024-03-28T07:22:23.792Z,99020.5
2024-03-28T07:23:23.610Z,99015.03
2024-03-28T07:24:23.791Z,99012.84
2024-03-28T07:25:24.142Z,99013.74
2024-03-28T07:26:24.480Z,99014.2
2024-03-28T07:27:25.234Z,99013.5
2024-03-28T07:28:25.154Z,99008.39
2024-03-28T07:29:25.698Z,99010.8
2024-03-28T07:30:26.286Z,99011.29
2024-03-28T07:31:26.309Z,99007.95
2024-03-28T07:32:27.280Z,99010.17
2024-03-28T07:33:27.330Z,99004.3
2024-03-28T07:34:27.455Z,99004.47
2024-03-28T07:35:29.119Z,98998.94
2024-03-28T07:36:28.291Z,98999.07
2024-03-28T07:37:28.762Z,98998.22
2024-03-28T07:38:29.109Z,98993.31
2024-03-28T07:39:29.530Z,98988.59
2024-03-28T07:40:30.047Z,98989.39
2024-03-28T07:41:30.250Z,98986.05
2024-03-28T07:42:30.811Z,98983.21
2024-03-28T07:43:31.318Z,98984.38
2024-03-28T07:44:31.407Z,98984.34
2024-03-28T07:45:31.936Z,98979.86
2024-03-28T07:46:32.354Z,98979.22
2024-03-28T07:47:34.277Z,98981.42
2024-03-28T07:48:33.602Z,98972.61
2024-03-28T07:49:33.497Z,98970.03
2024-03-28T07:50:34.023Z,98970.56
2024-03-28T07:51:34.316Z,98972.04
2024-03-28T07:52:35.182Z,98970.05
2024-03-28T07:53:35.152Z,98969.05
2024-03-28T07:54:36.954Z,98964.91
2024-03-28T07:55:35.799Z,98965.73
2024-03-28T07:56:36.309Z,98962.73
2024-03-28T07:57:36.707Z,98963.16
2024-03-28T07:58:36.960Z,98957.83
2024-03-28T07:59:37.554Z,98959.97
2024-03-28T08:00:37.971Z,98956.23
2024-03-28T08:01:38.192Z,98954.62
2024-03-28T08:02:38.594Z,98952.34
2024-03-28T08:03:40.410Z,98952.98
2024-03-28T08:04:39.432Z,98948.22
2024-03-28T08:05:39.859Z,98947.05
2024-03-28T08:06:40.382Z,98942.5
2024-03-28T08:07:40.772Z,98940.33
2024-03-28T08:08:40.982Z,98940.91
2024-03-28T08:09:41.513Z,98934.86
2024-03-28T08:10:41.966Z,98935.5
2024-03-28T08:11:42.144Z,98946.36
2024-03-28T08:12:42.687Z,98939.21
2024-03-28T08:13:43.083Z,98947.48
2024-03-28T08:14:43.397Z,98942.81
2024-03-28T08:15:44.052Z,98939.83
2024-03-28T08:16:44.260Z,98938.89
2024-03-28T08:17:44.521Z,98937.71
2024-03-28T08:18:45.052Z,98935.33
2024-03-28T08:19:45.390Z,98933.05
2024-03-28T08:20:46.375Z,98932.78
2024-03-28T08:21:46.186Z,98933.01
2024-03-28T08:22:46.852Z,98934.97
2024-03-28T08:23:47.130Z,98934.31
2024-03-28T08:24:47.534Z,98936.57
2024-03-28T08:25:48.674Z,98939.9
2024-03-28T08:26:48.391Z,98941.95
2024-03-28T08:27:49.102Z,98941.39
2024-03-28T08:28:49.193Z,98938
2024-03-28T08:29:49.725Z,98939.56
2024-03-28T08:30:49.828Z,98937.89
2024-03-28T08:31:50.371Z,98936.02
2024-03-28T08:32:54.351Z,98931.21
2024-03-28T08:33:51.914Z,98933.48
2024-03-28T08:34:52.205Z,98931.03
2024-03-28T08:35:52.734Z,98931.28
2024-03-28T08:36:53.170Z,98930.25
2024-03-28T08:37:53.456Z,98930.47
2024-03-28T08:38:53.889Z,98927.25
2024-03-28T08:39:54.241Z,98931.48
2024-03-28T08:40:54.565Z,98929.36
2024-03-28T08:41:55.543Z,98934.46
2024-03-28T08:42:55.490Z,98934.55
2024-03-28T08:43:56.095Z,98930.28
2024-03-28T08:44:56.382Z,98930.84
2024-03-28T08:45:56.692Z,98934.44
2024-03-28T08:46:57.528Z,98925.04
2024-03-28T08:47:57.636Z,98928.58
2024-03-28T08:48:58.173Z,98925.29
2024-03-28T08:49:58.285Z,98921.75
2024-03-28T08:50:58.889Z,98925.1
2024-03-28T08:51:59.305Z,98926.08
2024-03-28T08:52:59.617Z,98924.03
2024-03-28T08:54:00.651Z,98923.16
2024-03-28T08:55:01.113Z,98921.5
2024-03-28T08:56:00.866Z,98920.27
2024-03-28T08:57:01.267Z,98920.78
2024-03-28T08:58:01.691Z,98917.73
2024-03-28T08:59:03.226Z,98918.22
2024-03-28T09:00:02.536Z,98913.81
2024-03-28T09:01:03.468Z,98911.91
2024-03-28T09:02:03.983Z,98914.7
2024-03-28T09:03:04.514Z,98913.69
2024-03-28T09:04:04.918Z,98921.17
2024-03-28T09:05:05.209Z,98917.85
2024-03-28T09:06:05.856Z,98914.86
2024-03-28T09:07:05.642Z,98920.14
2024-03-28T09:08:06.923Z,98930.15
2024-03-28T09:09:06.688Z,98921.25
2024-03-28T09:10:07.528Z,98922.79
2024-03-28T09:11:07.197Z,98920.84
2024-03-28T09:12:08.229Z,98912.26
2024-03-28T09:13:08.354Z,98917.8
2024-03-28T09:14:08.701Z,98914.69
2024-03-28T09:15:09.489Z,98914.76
2024-03-28T09:16:09.695Z,98913.06
2024-03-28T09:17:09.508Z,98912.67
2024-03-28T09:18:09.948Z,98922.55
2024-03-28T09:19:10.532Z,98912.89
2024-03-28T09:20:12.209Z,98928.43
2024-03-28T09:21:11.369Z,98915.34
2024-03-28T09:22:11.793Z,98914.59
2024-03-28T09:23:12.221Z,98914.31
2024-03-28T09:24:12.608Z,98919.95
2024-03-28T09:25:12.964Z,98922.55
2024-03-28T09:26:13.520Z,98914
2024-03-28T09:27:14.066Z,98913.63
2024-03-28T09:28:14.274Z,98907.29
2024-03-28T09:29:14.707Z,98909.62
2024-03-28T09:30:14.997Z,98911.3
2024-03-28T09:31:15.651Z,98911.43
2024-03-28T09:32:15.882Z,98907.49
2024-03-28T09:33:16.673Z,98906.59
2024-03-28T09:34:17.100Z,98905.5
2024-03-28T09:35:17.324Z,98908.38
2024-03-28T09:36:19.858Z,98908.4
2024-03-28T09:37:19.672Z,98896.89
2024-03-28T09:38:19.665Z,98912.39
2024-03-28T09:39:20.121Z,98906.84
2024-03-28T09:40:20.338Z,98904.23
2024-03-28T09:42:24.910Z,98909.19
2024-03-28T09:43:24.541Z,98905.78
2024-03-28T09:44:25.261Z,98899.8
2024-03-28T09:45:26.784Z,98907.59
2024-03-28T09:46:27.314Z,98909.77
2024-03-28T09:47:27.865Z,98902.88
2024-03-28T09:48:27.438Z,98898.08
2024-03-28T09:49:29.064Z,98895.78
2024-03-28T09:50:29.079Z,98892.24
2024-03-28T09:51:28.964Z,98897.2
2024-03-28T09:52:31.455Z,98890.92
2024-03-28T09:53:30.878Z,98899.09
2024-03-28T09:54:32.689Z,98891.05
2024-03-28T09:55:30.362Z,98885.25
2024-03-28T09:56:30.843Z,98889.38
2024-03-28T09:57:31.059Z,98884.92
2024-03-28T09:58:31.731Z,98887.02
2024-03-28T09:59:31.932Z,98886.19
2024-03-28T10:00:33.687Z,98879.44
2024-03-28T10:01:33.477Z,98876.11
2024-03-28T10:03:38.002Z,98882.84
2024-03-28T10:04:37.571Z,98882.34
2024-03-28T10:05:37.164Z,98876.86
2024-03-28T10:06:37.190Z,98873.25
2024-03-28T10:07:37.785Z,98874.64
2024-03-28T10:08:39.236Z,98881.39
2024-03-28T10:09:38.640Z,98874.88
2024-03-28T10:10:39.460Z,98873.56
2024-03-28T10:11:41.209Z,98862.45
2024-03-28T10:12:39.966Z,98864.52
2024-03-28T10:13:40.379Z,98856.36
2024-03-28T10:14:41.053Z,98847.44
2024-03-28T10:15:41.326Z,98850.33
2024-03-28T10:16:43.298Z,98860.97
2024-03-28T10:17:42.720Z,98851.29
2024-03-28T10:18:42.993Z,98849.73
2024-03-28T10:19:43.415Z,98851.94
2024-03-28T10:21:47.010Z,98848.73
2024-03-28T10:22:47.420Z,98852.8
2024-03-28T10:23:47.608Z,98849.09
2024-03-28T10:24:49.274Z,98847.31
2024-03-28T10:25:48.564Z,98846.56
2024-03-28T10:26:49.010Z,98851.85
2024-03-28T10:27:49.488Z,98847.83
2024-03-28T10:28:50.015Z,98847.89
2024-03-28T10:29:53.994Z,98847.5
2024-03-28T10:30:55.169Z,98859.69
2024-03-28T10:31:52.731Z,98847.45
2024-03-28T10:33:58.176Z,98847.24
2024-03-28T10:34:58.475Z,98847.56
2024-03-28T10:36:00.332Z,98847.38
2024-03-28T10:37:06.047Z,98842.03
2024-03-28T10:38:09.512Z,98843.53
2024-03-28T10:39:05.886Z,98846.9
2024-03-28T10:40:07.287Z,98845.44
2024-03-28T10:41:07.498Z,98841.04
2024-03-28T10:42:09.135Z,98834.68
2024-03-28T10:43:07.504Z,98843.59
2024-03-28T10:44:11.016Z,98842.7
2024-03-28T10:45:09.267Z,98842.84
2024-03-28T10:46:11.601Z,98832.56
2024-03-28T10:47:12.570Z,98832.96
2024-03-28T10:48:17.783Z,98832.19
2024-03-28T10:49:11.246Z,98826.24
2024-03-28T10:55:27.757Z,98818.92
2024-03-28T10:56:23.283Z,98827.83
2024-03-28T10:57:22.457Z,98823.09
2024-03-28T10:58:22.982Z,98824.47
2024-03-28T10:59:26.571Z,98824.85
2024-03-28T11:00:25.019Z,98825.24
2024-03-28T11:01:25.565Z,98815.94
2024-03-28T11:02:26.201Z,98817.63
2024-03-28T11:03:27.300Z,98813.77
2024-03-28T11:04:26.839Z,98829.55
2024-03-28T11:05:28.049Z,98811.72
2024-03-28T11:06:27.321Z,98805.61
2024-03-28T11:07:27.947Z,98804
2024-03-28T11:08:33.080Z,98810.89
2024-03-28T11:09:30.714Z,98803.61
2024-03-28T11:10:31.551Z,98807.12
2024-03-28T11:11:32.277Z,98797.95
2024-03-28T11:12:31.965Z,98803.91
2024-03-28T11:13:32.659Z,98793.73
2024-03-28T11:14:32.976Z,98800.34
2024-03-28T11:15:33.429Z,98792.39
2024-03-28T11:16:33.957Z,98790.05
2024-03-28T11:17:41.029Z,98793.78
2024-03-28T11:18:38.995Z,98795.77
2024-03-28T11:19:39.239Z,98788.92
2024-03-28T11:20:39.613Z,98791.16
2024-03-28T11:21:40.040Z,98796.17
2024-03-28T11:22:40.551Z,98798.04
2024-03-28T11:23:47.099Z,98798.22
2024-03-28T11:24:44.998Z,98800.08
2024-03-28T11:25:46.194Z,98797.25
2024-03-28T11:26:54.299Z,98791.11
2024-03-28T11:27:46.837Z,98789.69
2024-03-28T11:28:47.652Z,98788.97
2024-03-28T11:29:48.070Z,98791.96
2024-03-28T11:30:55.650Z,98786.98
2024-03-28T11:31:59.746Z,98785.48
2024-03-28T11:34:03.992Z,98782.98
2024-03-28T11:35:09.516Z,98793.48
2024-03-28T11:36:03.771Z,98789.92
2024-03-28T11:37:02.659Z,98783.76
2024-03-28T11:38:10.548Z,98784.4
2024-03-28T11:39:08.182Z,98781.3
2024-03-28T11:40:09.961Z,98781.99
2024-03-28T11:41:09.225Z,98781.3
2024-03-28T11:42:31.875Z,98787.81
2024-03-28T11:43:17.936Z,98782.52
2024-03-28T11:45:19.630Z,98780.45
2024-03-28T11:46:20.333Z,98772.64
2024-03-28T11:47:23.643Z,98777.01
2024-03-28T11:48:25.560Z,98778.94
2024-03-28T11:49:23.234Z,98777.44
2024-03-28T11:50:27.401Z,98771.57
2024-03-28T11:51:26.390Z,98777.37
2024-03-28T11:52:26.615Z,98777.19
2024-03-28T11:53:27.134Z,98771.67
2024-03-28T11:54:28.272Z,98766.39
2024-03-28T11:55:28.027Z,98771.08
2024-03-28T11:56:32.173Z,98770.58
2024-03-28T11:57:29.825Z,98762.04
2024-03-28T11:58:30.833Z,98767
2024-03-28T11:59:30.671Z,98767.21
2024-03-28T12:00:31.898Z,98770.95
2024-03-28T12:01:31.487Z,98766.82
2024-03-28T12:02:32.311Z,98762.81
2024-03-28T12:03:32.852Z,98753.12
2024-03-28T12:04:33.113Z,98764.97
2024-03-28T12:05:34.070Z,98769.5